Hickory Grove, South Carolina
Current Conditions -  °F | °C
As of 9:35 AM on Sunday 25 Jan 2015 (Local Time) from KDCM Reporting Station
Clear Clear  
Wind Chill: 41°   Ceiling: Unl
Heat Index: 41°   Visibility: 10mi
Dew Point: 30°   Wind: 0mph
Humidity: 65%   Direction: NA
Pressure: 29.95"   Gusts: NA
Location:  34.98°N, 81.42°W
Report Text: KDCM 251435Z AUTO 00000KT 10SM CLR 05/M01 A2995 RMK AO2
Loading
Personal Weather Stations






























Interactive Weather Map New forecast layout! Learn more

10-Day Weather Forecast

Advertisements
Track Severe Weather on mobile